createdAt,value
2023-04-02T00:48:32.684Z,54.90
2023-04-02T00:51:12.010Z,55.00
2023-04-02T00:53:41.965Z,55.00
2023-04-02T00:56:20.261Z,54.90
2023-04-02T00:58:54.288Z,54.90
2023-04-02T01:48:19.850Z,54.70
2023-04-02T01:50:52.643Z,54.70
2023-04-02T01:53:24.898Z,54.70
2023-04-02T01:55:56.957Z,54.70
2023-04-02T01:58:28.793Z,54.60
2023-04-02T02:48:38.319Z,54.60
2023-04-02T02:51:17.849Z,54.60
2023-04-02T02:53:50.450Z,54.60
2023-04-02T02:56:20.475Z,54.60
2023-04-02T02:58:49.241Z,54.60
2023-04-02T03:48:16.846Z,54.40
2023-04-02T03:50:51.570Z,54.40
2023-04-02T03:53:25.222Z,54.40
2023-04-02T03:55:54.856Z,54.40
2023-04-02T03:58:27.812Z,54.30
2023-04-02T04:48:23.781Z,54.20
2023-04-02T04:50:58.777Z,54.20
2023-04-02T04:53:31.722Z,54.30
2023-04-02T04:56:18.077Z,54.30
2023-04-02T04:58:54.971Z,54.30
2023-04-02T05:01:30.323Z,54.20
2023-04-02T05:04:05.634Z,54.20
2023-04-02T05:06:40.432Z,54.20
2023-04-02T05:09:18.948Z,54.20
2023-04-02T05:11:53.921Z,54.20
2023-04-02T05:14:32.346Z,54.30
2023-04-02T05:17:08.625Z,54.20
2023-04-02T05:19:43.259Z,54.20
2023-04-02T05:22:24.039Z,54.20
2023-04-02T05:25:03.345Z,54.20
2023-04-02T05:27:41.103Z,54.20
2023-04-02T05:30:41.963Z,54.20
2023-04-02T05:33:24.829Z,54.20
2023-04-02T05:36:04.490Z,54.20
2023-04-02T05:38:39.865Z,54.20
2023-04-02T05:41:21.768Z,54.20
2023-04-02T05:43:57.247Z,54.20
2023-04-02T05:46:32.723Z,54.20
2023-04-02T05:49:05.849Z,54.20
2023-04-02T05:51:43.819Z,54.20
2023-04-02T05:54:23.699Z,54.20
2023-04-02T05:57:01.438Z,54.20
2023-04-02T05:59:34.750Z,54.20
2023-04-02T06:02:09.595Z,54.10
2023-04-02T06:04:47.926Z,54.20
2023-04-02T06:07:23.298Z,54.20
2023-04-02T06:10:06.778Z,54.10
2023-04-02T06:12:43.652Z,54.10
2023-04-02T06:15:16.129Z,54.10
2023-04-02T06:17:49.132Z,54.10
2023-04-02T06:20:20.921Z,54.00
2023-04-02T06:22:54.685Z,54.00
2023-04-02T06:25:28.608Z,54.00
2023-04-02T06:28:02.759Z,54.10
2023-04-02T06:30:36.114Z,54.00
2023-04-02T06:33:06.641Z,54.10
2023-04-02T06:35:43.136Z,54.10
2023-04-02T06:38:20.551Z,54.10
2023-04-02T06:40:53.766Z,54.00
2023-04-02T06:43:36.353Z,54.00
2023-04-02T06:46:23.842Z,54.00
2023-04-02T06:49:14.195Z,54.10
2023-04-02T06:51:45.219Z,54.00
2023-04-02T06:54:18.886Z,54.00
2023-04-02T06:56:56.203Z,54.00
2023-04-02T06:59:44.668Z,54.10
2023-04-02T07:02:31.081Z,54.00
2023-04-02T07:05:05.093Z,54.00
2023-04-02T07:07:35.985Z,54.00
2023-04-02T07:10:09.336Z,54.70
2023-04-02T07:12:41.058Z,54.80
2023-04-02T07:15:15.712Z,52.90
2023-04-02T07:17:44.743Z,52.20
2023-04-02T07:20:28.067Z,52.30
2023-04-02T07:22:58.346Z,51.90
2023-04-02T07:25:28.762Z,55.80
2023-04-02T07:27:57.859Z,57.50
2023-04-02T07:30:26.212Z,56.30
2023-04-02T07:32:54.622Z,56.10
2023-04-02T07:35:23.040Z,55.20
2023-04-02T07:37:52.759Z,54.60
2023-04-02T07:40:24.218Z,54.10
2023-04-02T07:42:53.935Z,54.30
2023-04-02T07:45:22.328Z,54.50
2023-04-02T07:47:50.696Z,54.60
2023-04-02T07:50:19.302Z,55.60
2023-04-02T07:52:47.758Z,54.90
2023-04-02T07:55:18.049Z,54.60
2023-04-02T07:57:54.030Z,54.60
2023-04-02T08:00:23.863Z,54.50
2023-04-02T08:02:52.822Z,54.40
2023-04-02T08:05:23.246Z,54.40
2023-04-02T08:07:55.894Z,54.40
2023-04-02T08:10:25.545Z,54.20
2023-04-02T08:12:55.533Z,54.00
2023-04-02T08:15:23.915Z,54.40
2023-04-02T08:17:53.541Z,54.30
2023-04-02T08:20:23.498Z,54.30
2023-04-02T08:22:52.428Z,54.50
2023-04-02T08:25:20.769Z,54.50
2023-04-02T08:27:49.731Z,54.40
2023-04-02T08:30:20.145Z,54.30
2023-04-02T08:32:48.556Z,54.20
2023-04-02T08:35:18.338Z,54.20
2023-04-02T08:37:46.857Z,54.10
2023-04-02T08:40:25.847Z,54.00
2023-04-02T08:43:15.909Z,54.30
2023-04-02T08:46:01.207Z,54.20
2023-04-02T08:48:31.911Z,54.10
2023-04-02T08:51:02.036Z,54.20
2023-04-02T08:53:35.867Z,54.20
2023-04-02T08:56:17.611Z,54.10
2023-04-02T08:58:50.620Z,53.90
2023-04-02T09:01:34.865Z,53.90
2023-04-02T09:04:14.951Z,53.90
2023-04-02T09:06:44.842Z,53.80
2023-04-02T09:09:15.560Z,53.50
2023-04-02T09:11:53.884Z,53.30
2023-04-02T09:14:27.585Z,53.30
2023-04-02T09:17:02.606Z,53.50
2023-04-02T09:19:37.624Z,53.50
2023-04-02T09:22:15.937Z,53.50
2023-04-02T09:24:44.349Z,53.50
2023-04-02T09:27:21.151Z,53.50
2023-04-02T09:29:54.024Z,53.50
2023-04-02T09:32:50.586Z,53.50
2023-04-02T09:35:26.618Z,53.40
2023-04-02T09:38:21.551Z,53.30
2023-04-02T09:40:58.566Z,53.30
2023-04-02T09:43:29.985Z,53.30
2023-04-02T09:46:02.026Z,53.20
2023-04-02T09:48:36.150Z,53.10
2023-04-02T09:51:15.293Z,53.10
2023-04-02T09:53:47.173Z,53.10
2023-04-02T09:56:19.263Z,53.10
2023-04-02T09:59:04.983Z,53.00
2023-04-02T10:01:36.291Z,53.00
2023-04-02T10:04:27.521Z,52.90
2023-04-02T10:06:58.279Z,52.70
2023-04-02T10:09:32.314Z,52.60
2023-04-02T10:12:02.302Z,52.60
2023-04-02T10:14:34.894Z,52.60
2023-04-02T10:17:09.408Z,52.60
2023-04-02T10:19:43.735Z,52.60
2023-04-02T10:22:17.580Z,52.70
2023-04-02T10:24:46.135Z,52.70
2023-04-02T10:27:28.713Z,52.70
2023-04-02T10:30:11.153Z,52.70
2023-04-02T10:32:45.581Z,52.70
2023-04-02T10:35:29.340Z,52.70
2023-04-02T10:38:27.280Z,52.70
2023-04-02T10:41:01.841Z,52.60
2023-04-02T10:43:49.324Z,52.50
2023-04-02T10:46:25.628Z,52.50
2023-04-02T10:49:09.198Z,52.80
2023-04-02T10:51:46.452Z,52.60
2023-04-02T10:54:41.561Z,52.40
2023-04-02T10:57:27.920Z,52.40
2023-04-02T11:00:07.856Z,52.30
2023-04-02T11:02:44.695Z,52.20
2023-04-02T11:05:23.859Z,52.00
2023-04-02T11:08:02.916Z,52.00
2023-04-02T11:10:38.242Z,52.10
2023-04-02T11:13:16.412Z,52.00
2023-04-02T11:15:45.365Z,52.00
2023-04-02T11:18:29.695Z,52.00
2023-04-02T11:21:03.412Z,52.00
2023-04-02T11:23:52.411Z,52.00
2023-04-02T11:26:38.553Z,52.00
2023-04-02T11:29:28.752Z,52.00
2023-04-02T11:32:29.828Z,52.00
2023-04-02T11:35:28.499Z,52.00
2023-04-02T11:37:59.777Z,52.00
2023-04-02T11:40:51.287Z,52.00
2023-04-02T11:43:50.163Z,52.80
2023-04-02T11:46:46.938Z,52.60
2023-04-02T11:49:40.791Z,52.40
2023-04-02T11:52:25.223Z,52.40
2023-04-02T11:55:32.612Z,52.20
2023-04-02T11:58:32.117Z,52.20
2023-04-02T12:01:46.507Z,52.10
2023-04-02T12:05:04.144Z,52.10
2023-04-02T12:08:22.551Z,51.80
2023-04-02T12:10:57.585Z,51.70
2023-04-02T12:13:58.469Z,51.60
2023-04-02T12:16:31.293Z,51.70
2023-04-02T12:19:00.540Z,51.70
2023-04-02T12:21:30.609Z,51.80
2023-04-02T12:24:00.399Z,51.90
2023-04-02T12:26:37.379Z,51.90
2023-04-02T12:29:26.009Z,52.00
2023-04-02T12:31:56.092Z,52.10
2023-04-02T12:34:26.876Z,52.10
2023-04-02T12:37:02.759Z,52.20
2023-04-02T12:39:32.482Z,52.30
2023-04-02T12:42:01.175Z,52.40
2023-04-02T12:44:32.774Z,52.30
2023-04-02T12:47:01.419Z,52.30
2023-04-02T12:49:36.876Z,52.30
2023-04-02T12:52:08.661Z,52.30
2023-04-02T12:54:44.921Z,52.30
2023-04-02T12:57:41.147Z,52.40
2023-04-02T13:00:37.126Z,52.40
2023-04-02T13:03:22.447Z,52.30
2023-04-02T13:05:55.440Z,52.30
2023-04-02T13:08:27.517Z,52.30
2023-04-02T13:10:59.816Z,52.40
2023-04-02T13:13:33.482Z,52.40
2023-04-02T13:16:23.355Z,52.60
2023-04-02T13:18:52.492Z,52.80
2023-04-02T13:21:28.830Z,52.80
2023-04-02T13:23:57.690Z,52.90
2023-04-02T13:26:28.150Z,52.90
2023-04-02T13:29:05.004Z,52.90
2023-04-02T13:34:03.604Z,52.70
2023-04-02T13:36:32.017Z,53.10
2023-04-02T13:39:00.772Z,53.70
2023-04-02T13:44:27.303Z,53.10
2023-04-02T13:46:58.311Z,53.20
2023-04-02T13:49:27.851Z,53.20
2023-04-02T13:51:58.925Z,53.10
2023-04-02T13:54:33.679Z,53.20
2023-04-02T13:57:02.219Z,53.30
2023-04-02T13:59:31.439Z,53.30
2023-04-02T14:02:07.590Z,53.30
2023-04-02T14:04:40.570Z,53.30
2023-04-02T14:07:44.658Z,53.30
2023-04-02T14:10:26.702Z,53.30
2023-04-02T14:13:19.464Z,53.20
2023-04-02T14:16:07.129Z,53.30
2023-04-02T14:18:58.893Z,53.30
2023-04-02T14:21:37.803Z,53.20
2023-04-02T14:24:19.889Z,53.30
2023-04-02T14:27:09.462Z,53.30
2023-04-02T14:29:46.678Z,53.30
2023-04-02T14:32:23.999Z,53.40
2023-04-02T14:35:03.074Z,53.40
2023-04-02T14:37:40.308Z,53.40
2023-04-02T14:40:20.769Z,53.40
2023-04-02T14:42:58.182Z,53.40
2023-04-02T14:45:45.768Z,53.40
2023-04-02T14:48:29.916Z,54.00
2023-04-02T14:51:03.665Z,53.40
2023-04-02T14:53:38.182Z,53.40
2023-04-02T14:56:09.194Z,53.40
2023-04-02T14:58:43.491Z,53.40
2023-04-02T15:01:17.445Z,53.40
2023-04-02T15:03:50.824Z,53.40
2023-04-02T15:06:25.598Z,53.40
2023-04-02T15:09:08.914Z,53.50
2023-04-02T15:11:39.668Z,53.50
2023-04-02T15:14:17.239Z,53.50
2023-04-02T15:16:46.398Z,53.60
2023-04-02T15:19:17.900Z,53.60
2023-04-02T15:22:09.713Z,53.60
2023-04-02T15:24:52.300Z,53.60
2023-04-02T15:27:36.334Z,53.70
2023-04-02T15:30:09.466Z,53.60
2023-04-02T15:32:40.568Z,53.70
2023-04-02T15:35:34.072Z,53.70
2023-04-02T15:38:14.755Z,53.60
2023-04-02T15:40:58.165Z,53.60
2023-04-02T15:43:31.458Z,53.70
2023-04-02T15:46:19.721Z,53.60
2023-04-02T15:49:08.739Z,53.70
2023-04-02T15:51:52.899Z,53.70
2023-04-02T15:54:43.104Z,53.70
2023-04-02T15:57:26.041Z,53.60
2023-04-02T16:00:22.996Z,53.60
2023-04-02T16:03:28.593Z,53.70
2023-04-02T16:06:17.066Z,53.70
2023-04-02T16:09:04.558Z,57.80
2023-04-02T16:11:34.683Z,61.40
2023-04-02T16:14:25.856Z,57.90
2023-04-02T16:16:59.910Z,57.90
2023-04-02T16:19:35.161Z,57.40
2023-04-02T16:22:11.908Z,56.90
2023-04-02T16:24:40.240Z,56.50
2023-04-02T16:27:25.799Z,56.30
2023-04-02T16:30:10.354Z,56.10
2023-04-02T16:32:57.131Z,56.00
2023-04-02T16:38:21.597Z,55.80
2023-04-02T16:41:07.623Z,55.70
2023-04-02T16:43:50.412Z,55.60
2023-04-02T16:46:38.873Z,55.50
2023-04-02T16:49:21.261Z,55.30
2023-04-02T16:52:03.006Z,55.20
2023-04-02T16:54:38.634Z,55.10
2023-04-02T16:57:27.509Z,55.00
2023-04-02T17:00:11.568Z,55.00
2023-04-02T17:02:55.637Z,55.00
2023-04-02T17:05:32.880Z,54.90
2023-04-02T17:08:18.165Z,54.80
2023-04-02T17:13:29.676Z,54.80
2023-04-02T17:16:12.671Z,54.80
2023-04-02T17:18:44.350Z,54.80
2023-04-02T17:21:19.585Z,54.80
2023-04-02T17:23:56.207Z,54.80
2023-04-02T17:26:29.034Z,54.70
2023-04-02T17:29:02.402Z,54.70
2023-04-02T17:31:35.768Z,54.70
2023-04-02T17:34:14.374Z,54.80
2023-04-02T17:36:50.210Z,54.70
2023-04-02T17:39:25.520Z,54.70
2023-04-02T17:42:00.267Z,54.70
2023-04-02T17:44:42.778Z,54.60
2023-04-02T17:47:20.657Z,54.60
2023-04-02T17:50:03.485Z,54.50
2023-04-02T17:52:37.218Z,54.50
2023-04-02T17:55:20.022Z,54.50
2023-04-02T17:58:01.342Z,54.50
2023-04-02T18:00:51.060Z,54.50
2023-04-02T18:03:40.182Z,54.40
2023-04-02T18:06:15.484Z,54.40
2023-04-02T18:08:58.858Z,54.50
2023-04-02T18:11:37.105Z,54.40
2023-04-02T18:14:32.786Z,54.40
2023-04-02T18:17:10.690Z,54.30
2023-04-02T18:19:51.732Z,54.40
2023-04-02T18:22:27.292Z,54.30
2023-04-02T18:25:24.629Z,54.30
2023-04-02T18:28:10.307Z,54.30
2023-04-02T18:30:48.074Z,54.30
2023-04-02T18:33:42.235Z,54.30
2023-04-02T18:36:21.044Z,54.30
2023-04-02T18:38:55.910Z,54.20
2023-04-02T18:41:47.002Z,54.20
2023-04-02T18:44:41.149Z,54.20
2023-04-02T18:47:19.884Z,54.20
2023-04-02T18:49:54.997Z,54.70
2023-04-02T18:52:26.086Z,54.00
2023-04-02T18:55:02.330Z,54.10
2023-04-02T18:57:34.125Z,54.10
2023-04-02T19:00:06.964Z,54.00
2023-04-02T19:02:43.979Z,54.00
2023-04-02T19:05:24.076Z,54.00
2023-04-02T19:08:00.935Z,54.00
2023-04-02T19:10:34.670Z,54.00
2023-04-02T19:13:03.055Z,54.00
2023-04-02T19:15:41.619Z,53.90
2023-04-02T19:18:20.598Z,54.00
2023-04-02T19:20:57.813Z,53.90
2023-04-02T19:23:50.579Z,53.90
2023-04-02T19:26:26.578Z,54.50
2023-04-02T19:29:08.627Z,54.00
2023-04-02T19:31:56.114Z,53.90
2023-04-02T19:34:33.844Z,53.90
2023-04-02T19:37:12.576Z,54.00
2023-04-02T19:40:10.918Z,53.90
2023-04-02T19:42:47.242Z,53.80
2023-04-02T19:45:34.758Z,53.80
2023-04-02T19:48:14.034Z,53.80
2023-04-02T19:50:42.725Z,53.80
2023-04-02T19:53:11.182Z,53.80
2023-04-02T19:55:41.120Z,53.80
2023-04-02T19:58:23.989Z,53.80
2023-04-02T20:00:52.373Z,53.70
2023-04-02T20:03:21.120Z,53.70
2023-04-02T20:05:49.877Z,53.70
2023-04-02T20:08:18.484Z,53.70
2023-04-02T20:10:48.204Z,53.70
2023-04-02T20:13:16.556Z,53.70
2023-04-02T20:15:44.842Z,53.70
2023-04-02T20:18:13.353Z,53.60
2023-04-02T20:20:41.682Z,53.70
2023-04-02T20:23:09.958Z,53.60
2023-04-02T20:25:38.302Z,53.60
2023-04-02T20:28:07.965Z,53.70
2023-04-02T20:30:37.276Z,53.60
2023-04-02T20:33:06.117Z,53.70
2023-04-02T20:35:37.557Z,53.60
2023-04-02T20:38:08.026Z,53.50
2023-04-02T20:40:36.842Z,53.50
2023-04-02T20:43:05.332Z,53.50
2023-04-02T20:45:35.197Z,53.50
2023-04-02T20:48:04.005Z,53.50
2023-04-02T20:50:32.640Z,53.80
2023-04-02T20:53:01.757Z,54.00
2023-04-02T20:55:30.110Z,53.90
2023-04-02T20:57:58.479Z,53.70
2023-04-02T21:00:27.264Z,55.60
2023-04-02T21:02:57.714Z,54.30
2023-04-02T21:05:26.119Z,56.00
2023-04-02T21:07:54.409Z,57.90
2023-04-02T21:10:22.739Z,60.60
2023-04-02T21:12:51.157Z,61.30
2023-04-02T21:15:19.500Z,61.40
2023-04-02T21:17:47.834Z,60.00
2023-04-02T21:20:17.807Z,59.10
2023-04-02T21:22:46.331Z,58.50
2023-04-02T21:25:15.113Z,58.10
2023-04-02T21:27:43.403Z,57.90
2023-04-02T21:30:13.220Z,57.80
2023-04-02T21:32:41.663Z,57.50
2023-04-02T21:35:10.685Z,57.40
2023-04-02T21:37:40.387Z,57.30
2023-04-02T21:40:10.489Z,57.20
2023-04-02T21:42:38.898Z,57.10
2023-04-02T21:45:08.470Z,57.00
2023-04-02T21:47:36.843Z,57.00
2023-04-02T21:50:06.071Z,56.90
2023-04-02T21:52:34.382Z,56.90
2023-04-02T21:55:04.134Z,56.90
2023-04-02T21:57:32.592Z,56.80
2023-04-02T22:00:00.932Z,56.80
2023-04-02T22:02:29.281Z,56.70
2023-04-02T22:04:57.629Z,56.80
2023-04-02T22:07:26.238Z,57.40
2023-04-02T22:09:54.559Z,57.60
2023-04-02T22:12:24.255Z,57.30
2023-04-02T22:14:52.800Z,57.10
2023-04-02T22:17:21.112Z,57.00
2023-04-02T22:19:49.397Z,57.20
2023-04-02T22:22:17.689Z,57.60
2023-04-02T22:24:46.353Z,57.00
2023-04-02T22:27:14.717Z,56.80
2023-04-02T22:29:44.528Z,56.30
2023-04-02T22:32:12.981Z,55.70
2023-04-02T22:34:45.506Z,55.40
2023-04-02T22:37:14.018Z,55.30
2023-04-02T22:39:42.342Z,55.10
2023-04-02T22:42:10.658Z,54.90
2023-04-02T22:44:39.034Z,54.80
2023-04-02T22:47:08.786Z,54.70
2023-04-02T22:49:37.134Z,54.70
2023-04-02T22:52:06.074Z,54.60
2023-04-02T22:54:34.443Z,54.60
2023-04-02T22:57:03.203Z,54.50
2023-04-02T22:59:31.569Z,54.50
2023-04-02T23:01:59.968Z,54.50
2023-04-02T23:04:29.698Z,54.40
2023-04-02T23:06:58.068Z,54.40
2023-04-02T23:09:26.634Z,54.40
2023-04-02T23:11:55.529Z,54.40
2023-04-02T23:14:23.810Z,54.40
2023-04-02T23:16:52.266Z,54.40
2023-04-02T23:19:20.605Z,55.00
2023-04-02T23:21:50.237Z,54.30
2023-04-02T23:24:18.693Z,54.20
2023-04-02T23:26:46.973Z,54.10
2023-04-02T23:29:15.511Z,54.00
2023-04-02T23:31:43.872Z,54.00
2023-04-02T23:34:12.711Z,54.00
2023-04-02T23:36:41.152Z,54.00
2023-04-02T23:39:14.226Z,54.00
2023-04-02T23:41:43.835Z,53.90
2023-04-02T23:44:12.419Z,53.90
2023-04-02T23:46:40.903Z,53.80
2023-04-02T23:49:12.438Z,53.80
2023-04-02T23:51:41.369Z,53.90
2023-04-02T23:59:02.864Z,53.80
